< Cyclone 199411 1995 Season Cyclone 199502 >
Cyclone 199501 (ANNETTE)
General InformationTrack Information on Google MapsDetailed Wind InformationList of All Images || ResourceGoogle EarthGE AnimationAtom FeedGeoJSON
Detalied Best Track (Time Zone = UTC)
Year Month Day Hour Lat. Long. Pressure (hPa) Wind (kt) Class Image Chart
1994 12 13 00 -12.4 116.0 1006 0 0 Image --
1994 12 13 06 -12.4 116.0 1006 0 0 Image --
1994 12 13 09 -12.4 116.0 1004 21 2 Image --
1994 12 13 12 -12.4 116.0 1004 21 2 Image --
1994 12 13 15 -12.4 116.0 1004 21 2 Image --
1994 12 13 18 -12.4 116.0 1004 21 2 Image --
1994 12 13 21 -12.4 116.0 1004 21 2 Image --
1994 12 14 00 -12.4 116.0 1002 23 2 Image --
1994 12 14 03 -12.4 115.8 1000 27 2 Image --
1994 12 14 06 -12.4 115.7 1000 27 2 Image --
1994 12 14 09 -12.4 115.6 998 29 2 Image --
1994 12 14 12 -12.4 115.6 998 29 2 Image --
1994 12 14 15 -12.4 115.6 996 33 2 Image --
1994 12 14 18 -12.4 115.6 994 35 3 Image --
1994 12 14 21 -12.4 115.6 990 41 3 Image --
1994 12 15 00 -12.4 115.6 985 47 3 Image --
1994 12 15 03 -12.4 115.6 980 54 4 Image --
1994 12 15 06 -12.5 115.6 975 60 4 Image --
1994 12 15 09 -12.6 115.6 975 60 4 Image --
1994 12 15 12 -12.7 115.6 975 60 4 Image --
1994 12 15 15 -12.8 115.6 970 66 5 Image --
1994 12 15 18 -12.9 115.6 965 70 5 Image --
1994 12 15 21 -13.0 115.6 960 76 5 Image --
1994 12 16 00 -13.1 115.7 955 80 5 Image --
1994 12 16 03 -13.2 115.8 950 84 5 Image --
1994 12 16 06 -13.4 115.9 945 89 5 Image --
1994 12 16 09 -13.6 116.0 940 93 5 Image --
1994 12 16 12 -13.9 116.2 940 93 5 Image --
1994 12 16 15 -14.1 116.4 945 89 5 Image --
1994 12 16 18 -14.3 116.7 950 84 5 Image --
1994 12 16 21 -14.6 117.0 955 80 5 Image --
1994 12 17 00 -14.9 117.4 955 80 5 Image --
1994 12 17 03 -15.3 117.8 955 80 5 Image --
1994 12 17 06 -15.6 118.1 955 80 5 Image --
1994 12 17 09 -15.9 118.4 955 80 5 Image --
1994 12 17 12 -16.2 118.7 955 80 5 Image --
1994 12 17 15 -16.5 119.1 950 84 5 Image --
1994 12 17 18 -16.9 119.6 940 93 5 Image --
1994 12 17 21 -17.4 119.9 930 101 5 Image --
1994 12 18 00 -18.0 120.2 925 105 5 Image --
1994 12 18 03 -18.5 120.4 930 101 5 Image --
1994 12 18 06 -19.1 120.6 930 101 5 Image --
1994 12 18 09 -19.7 120.9 935 97 5 Image --
1994 12 18 12 -20.3 121.3 955 80 5 Image --
1994 12 18 15 -21.1 121.8 975 60 4 Image --
1994 12 18 18 -21.8 122.2 990 41 3 Image --
1994 12 18 21 -22.6 122.6 995 35 3 Image --
1994 12 19 00 -23.2 123.0 995 35 3 Image --
1994 12 19 06 -24.7 123.8 995 35 3 Image --
1994 12 19 12 -25.3 124.9 995 35 3 Image --
1994 12 19 18 -28.7 126.8 995 35 3 Image --
1994 12 20 00 -31.2 129.2 995 35 3 Image --
1994 12 20 06 -32.3 130.8 995 35 3 Image --
< Cyclone 199411 1995 Season Cyclone 199502 >

Help